KEOK/EOK METAR and TAF weather

Enter ICAO airport designator
Station Type Date Time Source
KEOK METAR 2023/09/28 18:35 UTC NOAA

KEOK 281835Z AUTO 10006KT 10SM SCT028 BKN034 23/16 A3005 RMK A01


Station Type Date Time Source
KEOK Decoded METAR 2023/09/28 18:35 UTC NOAA

Keokuk Municipal, IA, United States (KEOK) 40-28N 091-26W
Sep 28, 2023 - 02:35 PM EDT / 2023.09.28 1835 UTC
Wind: from the E (100 degrees) at 7 MPH (6 KT):0
Visibility: 10 mile(s):0
Sky conditions: mostly cloudy
Temperature: 73 F (23 C)
Dew Point: 60 F (16 C)
Relative Humidity: 64%
Pressure (altimeter): 30.05 in. Hg (1017 hPa)
ob: KEOK 281835Z AUTO 10006KT 10SM SCT028 BKN034 23/16 A3005 RMK A01
cycle: 18

Station Type Date Time Source
KEOK TAF UTC NOAA

Error!

Example: see airport list